Time;durP1;ratioP1;P1;durP2;ratioP2;P2;SDS_P1;SDS_P2;PMS_P1;PMS_P2;Temp;Humidity;BMP_temperature;BMP_pressure;BME280_temperature;BME280_humidity;BME280_pressure;Samples;Min_cycle;Max_cycle;Signal;HPM_P1;HPM_P2
2021/03/06 00:00:16;;;;;;;22.35;10.82;;;-2.40;99.90;;;;;;4159340;28;20044;-79
2021/03/06 00:02:17;;;;;;;25.40;12.77;;;-2.50;99.90;;;;;;4120934;28;20031;-80
2021/03/06 00:04:18;;;;;;;21.55;10.95;;;-2.50;99.90;;;;;;4175472;28;20032;-77
2021/03/06 00:06:19;;;;;;;20.88;11.25;;;-2.50;99.90;;;;;;4155687;28;20080;-80
2021/03/06 00:08:23;;;;;;;22.35;10.35;;;-2.60;99.90;;;;;;4170273;28;20517;-77
2021/03/06 00:10:25;;;;;;;23.95;11.88;;;-2.60;99.90;;;;;;4155446;28;20064;-78
2021/03/06 00:12:26;;;;;;;19.20;12.00;;;-2.60;99.90;;;;;;4143879;28;20113;-79
2021/03/06 00:14:27;;;;;;;30.80;12.75;;;-2.60;99.90;;;;;;4148486;28;20473;-79
2021/03/06 00:16:28;;;;;;;20.05;11.32;;;-2.70;99.90;;;;;;4125511;28;20160;-79
2021/03/06 00:18:28;;;;;;;19.88;10.98;;;-2.60;99.90;;;;;;4137710;28;20129;-79
2021/03/06 00:20:29;;;;;;;19.02;11.52;;;-2.60;99.90;;;;;;4127512;28;20042;-79
2021/03/06 00:22:30;;;;;;;23.05;11.40;;;-2.70;99.90;;;;;;4143116;28;20046;-79
2021/03/06 00:24:30;;;;;;;20.50;13.30;;;-2.70;99.90;;;;;;4157219;28;20081;-79
2021/03/06 00:26:31;;;;;;;20.25;11.13;;;-2.60;99.90;;;;;;4147612;28;20050;-79
2021/03/06 00:28:32;;;;;;;25.38;10.85;;;-2.60;99.90;;;;;;4140542;28;20489;-77
2021/03/06 00:30:33;;;;;;;21.85;12.77;;;-2.70;99.90;;;;;;4155409;28;20034;-77
2021/03/06 00:32:34;;;;;;;21.75;11.77;;;-2.70;99.90;;;;;;4169602;28;20040;-77
2021/03/06 00:34:35;;;;;;;20.85;12.63;;;-2.70;99.90;;;;;;4140624;28;20114;-77
2021/03/06 00:36:35;;;;;;;19.20;10.48;;;-2.70;99.90;;;;;;4161311;28;20045;-77
2021/03/06 00:38:36;;;;;;;17.50;10.93;;;-2.70;99.90;;;;;;4158016;28;20053;-77
2021/03/06 00:40:37;;;;;;;26.73;12.15;;;-2.70;99.90;;;;;;4151472;28;20119;-78
2021/03/06 00:42:38;;;;;;;20.02;11.85;;;-2.70;99.90;;;;;;4160015;28;20045;-77
2021/03/06 00:44:39;;;;;;;19.23;11.73;;;-2.70;99.90;;;;;;4175738;28;20052;-76
2021/03/06 00:46:40;;;;;;;31.98;14.23;;;-2.70;99.90;;;;;;4161391;28;20368;-79
2021/03/06 00:48:41;;;;;;;29.77;14.18;;;-2.70;99.90;;;;;;4177454;28;20037;-78
2021/03/06 00:50:42;;;;;;;22.48;14.75;;;-2.70;99.90;;;;;;4160528;28;20174;-79
2021/03/06 00:52:43;;;;;;;28.15;14.73;;;-2.70;99.90;;;;;;4143342;28;20516;-78
2021/03/06 00:54:43;;;;;;;28.67;13.98;;;-2.70;99.90;;;;;;4160434;28;20033;-79
2021/03/06 00:56:44;;;;;;;35.60;16.00;;;-2.70;99.90;;;;;;4191200;28;20162;-78
2021/03/06 00:58:45;;;;;;;30.08;14.55;;;-2.70;99.90;;;;;;4159384;28;20507;-79
2021/03/06 01:00:45;;;;;;;31.75;14.95;;;-2.60;99.90;;;;;;4167875;28;20427;-78
2021/03/06 01:02:46;;;;;;;26.65;13.98;;;-2.60;99.90;;;;;;4155642;28;20076;-78
2021/03/06 01:04:47;;;;;;;32.38;14.90;;;-2.70;99.90;;;;;;4143050;28;20034;-78
2021/03/06 01:06:48;;;;;;;29.50;14.13;;;-2.80;99.90;;;;;;4160889;28;20029;-78
2021/03/06 01:08:50;;;;;;;26.92;13.93;;;-2.90;99.90;;;;;;4144913;28;20029;-78
2021/03/06 01:10:52;;;;;;;22.25;12.98;;;-2.90;99.90;;;;;;4187934;28;20068;-78
2021/03/06 01:12:53;;;;;;;24.52;11.52;;;-2.90;99.90;;;;;;4145964;28;20033;-78
2021/03/06 01:14:53;;;;;;;21.08;12.48;;;-2.90;99.90;;;;;;4161015;28;20037;-78
2021/03/06 01:16:54;;;;;;;24.63;14.45;;;-2.90;99.90;;;;;;4143477;28;20558;-78
2021/03/06 01:18:55;;;;;;;21.38;12.63;;;-3.00;99.90;;;;;;4143020;28;20041;-78
2021/03/06 01:20:56;;;;;;;29.52;14.85;;;-3.00;99.90;;;;;;4182228;28;20036;-78
2021/03/06 01:22:57;;;;;;;31.77;14.00;;;-3.00;99.90;;;;;;4187366;28;20499;-78
2021/03/06 01:24:58;;;;;;;31.08;14.20;;;-3.10;99.90;;;;;;4148562;28;20041;-78
2021/03/06 01:27:03;;;;;;;32.60;15.88;;;-3.10;99.90;;;;;;4151147;28;20029;-78
2021/03/06 01:29:04;;;;;;;32.45;15.05;;;-3.10;99.90;;;;;;4154379;28;20040;-78
2021/03/06 01:31:05;;;;;;;34.55;15.55;;;-3.10;99.90;;;;;;4165027;28;20037;-78
2021/03/06 01:33:06;;;;;;;31.40;14.98;;;-3.10;99.90;;;;;;4139363;28;20896;-78
2021/03/06 01:35:09;;;;;;;34.70;15.02;;;-3.10;99.90;;;;;;4169345;28;20041;-78
2021/03/06 01:37:10;;;;;;;31.65;15.07;;;-3.10;99.90;;;;;;4157014;28;20045;-78
2021/03/06 01:39:11;;;;;;;25.85;13.27;;;-3.20;99.90;;;;;;4156276;28;20041;-78
2021/03/06 01:41:12;;;;;;;30.60;15.23;;;-3.20;99.90;;;;;;4179887;28;20063;-78
2021/03/06 01:43:14;;;;;;;27.23;13.07;;;-3.20;99.90;;;;;;4159814;28;20048;-78
2021/03/06 01:45:15;;;;;;;33.17;13.32;;;-3.30;99.90;;;;;;4160167;28;20036;-78
2021/03/06 01:47:17;;;;;;;22.13;14.38;;;-3.30;99.90;;;;;;4156687;28;20057;-79
2021/03/06 01:49:17;;;;;;;21.73;12.63;;;-3.30;99.90;;;;;;4141245;28;20030;-78
2021/03/06 01:51:18;;;;;;;23.20;12.40;;;-3.30;99.90;;;;;;4159043;28;20563;-78
2021/03/06 01:53:19;;;;;;;24.33;12.32;;;-3.40;99.90;;;;;;4185292;28;20150;-78
2021/03/06 01:55:26;;;;;;;32.00;13.38;;;-3.40;99.90;;;;;;4134122;28;20037;-78
2021/03/06 01:57:29;;;;;;;26.08;13.02;;;-3.40;99.90;;;;;;4159926;28;20037;-78
2021/03/06 01:59:30;;;;;;;28.08;13.18;;;-3.30;99.90;;;;;;4154190;28;20037;-78
2021/03/06 02:01:31;;;;;;;29.40;14.30;;;-3.30;99.90;;;;;;4134263;28;20077;-78
2021/03/06 02:03:32;;;;;;;27.40;13.52;;;-3.30;99.90;;;;;;4186135;28;20044;-78
2021/03/06 02:05:34;;;;;;;21.42;13.73;;;-3.30;99.90;;;;;;4155014;28;20041;-78
2021/03/06 02:07:35;;;;;;;24.30;13.32;;;-3.40;99.90;;;;;;4171088;28;20634;-78
2021/03/06 02:09:36;;;;;;;22.23;13.10;;;-3.40;99.90;;;;;;4154956;28;20051;-78
2021/03/06 02:12:15;;;;;;;35.05;14.85;;;-3.40;99.90;;;;;;4150843;28;20116;-77
2021/03/06 02:14:28;;;;;;;24.70;12.95;;;-3.40;99.90;;;;;;4172119;28;20041;-78
2021/03/06 02:16:43;;;;;;;25.08;13.85;;;-3.50;99.90;;;;;;4153999;28;20045;-78
2021/03/06 02:19:24;;;;;;;30.33;12.85;;;-3.50;99.90;;;;;;4172370;28;20037;-78
2021/03/06 02:21:35;;;;;;;23.17;14.18;;;-3.50;99.90;;;;;;4152770;28;20696;-78
2021/03/06 02:23:55;;;;;;;20.58;14.02;;;-3.50;99.90;;;;;;4152851;28;20045;-77
2021/03/06 02:26:35;;;;;;;26.25;13.23;;;-3.50;99.90;;;;;;4155144;28;20038;-78
2021/03/06 02:29:25;;;;;;;26.25;12.85;;;-3.50;99.90;;;;;;4158399;28;20073;-78
2021/03/06 02:31:32;;;;;;;27.45;14.73;;;-3.50;99.90;;;;;;4140760;28;20809;-78
2021/03/06 02:33:37;;;;;;;23.80;13.23;;;-3.30;99.90;;;;;;4171290;28;20044;-78
2021/03/06 02:35:42;;;;;;;24.67;14.02;;;-3.30;99.90;;;;;;4158217;28;20084;-77
2021/03/06 02:37:48;;;;;;;27.92;13.75;;;-3.30;99.90;;;;;;4160763;28;20048;-77
2021/03/06 02:39:52;;;;;;;27.50;14.15;;;-3.40;99.90;;;;;;4153722;28;20040;-77
2021/03/06 02:41:55;;;;;;;25.05;14.48;;;-3.40;99.90;;;;;;4160280;28;20032;-77
2021/03/06 02:43:58;;;;;;;23.75;13.63;;;-3.50;99.90;;;;;;4183010;28;20474;-77
2021/03/06 02:46:05;;;;;;;23.80;11.82;;;-3.50;99.90;;;;;;4177317;28;20033;-78
2021/03/06 02:48:08;;;;;;;19.48;12.60;;;-3.60;99.90;;;;;;4136864;28;20026;-77
2021/03/06 02:50:11;;;;;;;29.08;13.15;;;-3.60;99.90;;;;;;4159102;28;20087;-77
2021/03/06 02:52:12;;;;;;;45.05;20.58;;;-3.60;99.90;;;;;;4159580;28;20033;-77
2021/03/06 02:54:12;;;;;;;41.80;20.17;;;-3.60;99.90;;;;;;4152312;28;20052;-77
2021/03/06 02:56:16;;;;;;;38.40;18.85;;;-3.60;99.90;;;;;;4161420;28;20033;-77
2021/03/06 02:58:35;;;;;;;27.35;13.60;;;-3.60;99.90;;;;;;4147851;28;20061;-77
2021/03/06 03:00:47;;;;;;;29.08;14.50;;;-3.60;99.90;;;;;;4162128;28;20053;-77
2021/03/06 03:03:06;;;;;;;45.65;16.25;;;-3.70;99.90;;;;;;4157913;28;20068;-79
2021/03/06 03:05:44;;;;;;;27.83;17.58;;;-3.80;99.90;;;;;;4169942;28;20100;-76
2021/03/06 03:08:26;;;;;;;29.85;14.80;;;-3.70;99.90;;;;;;4159219;28;20042;-78
2021/03/06 03:10:32;;;;;;;34.15;15.07;;;-3.70;99.90;;;;;;4159228;28;20050;-78
2021/03/06 03:12:40;;;;;;;42.42;17.63;;;-3.60;99.90;;;;;;4159326;28;20071;-76
2021/03/06 03:14:48;;;;;;;39.85;15.18;;;-3.60;99.90;;;;;;4163632;28;20026;-76
2021/03/06 03:17:09;;;;;;;37.72;15.55;;;-3.60;99.90;;;;;;4154298;28;20029;-76
2021/03/06 03:19:30;;;;;;;40.42;16.25;;;-3.60;99.90;;;;;;4141476;28;20053;-78
2021/03/06 03:21:36;;;;;;;28.13;13.20;;;-3.70;99.90;;;;;;4160827;28;20611;-76
2021/03/06 03:23:47;;;;;;;30.45;14.27;;;-3.80;99.90;;;;;;4158514;28;20050;-76
2021/03/06 03:25:49;;;;;;;24.67;12.02;;;-3.80;99.90;;;;;;4137828;28;20038;-77
2021/03/06 03:27:52;;;;;;;25.83;12.68;;;-3.80;99.90;;;;;;4145449;28;20428;-76
2021/03/06 03:29:54;;;;;;;21.90;12.32;;;-3.80;99.90;;;;;;4147477;28;20104;-76
2021/03/06 03:31:56;;;;;;;19.60;11.15;;;-3.70;99.90;;;;;;4145222;28;20038;-78
2021/03/06 03:33:58;;;;;;;22.93;11.90;;;-3.70;99.90;;;;;;4153193;28;20524;-76
2021/03/06 03:36:03;;;;;;;26.63;12.55;;;-3.70;99.90;;;;;;4163134;28;20322;-76
2021/03/06 03:38:07;;;;;;;21.77;11.57;;;-3.80;99.90;;;;;;4193933;28;20028;-78
2021/03/06 03:40:12;;;;;;;24.52;12.45;;;-3.90;99.90;;;;;;4194467;28;20032;-78
2021/03/06 03:42:13;;;;;;;23.05;12.10;;;-3.90;99.90;;;;;;4153238;28;20045;-76
2021/03/06 03:44:16;;;;;;;22.80;11.77;;;-4.00;99.90;;;;;;4154410;28;20113;-76
2021/03/06 03:46:17;;;;;;;22.40;13.30;;;-4.00;99.90;;;;;;4147053;28;20030;-76
2021/03/06 03:48:23;;;;;;;22.05;11.27;;;-4.00;99.90;;;;;;4181433;28;20025;-76
2021/03/06 03:50:24;;;;;;;18.13;11.20;;;-4.00;99.90;;;;;;4151056;28;20038;-75
2021/03/06 03:52:25;;;;;;;24.30;11.13;;;-4.00;99.90;;;;;;4164184;28;20037;-76
2021/03/06 03:54:27;;;;;;;21.73;11.50;;;-4.10;99.90;;;;;;4162518;28;20045;-77
2021/03/06 03:56:28;;;;;;;22.23;11.77;;;-4.10;99.90;;;;;;4171208;28;20124;-76
2021/03/06 03:58:29;;;;;;;26.42;11.40;;;-4.10;99.90;;;;;;4153307;28;20060;-76
2021/03/06 04:00:29;;;;;;;27.15;12.80;;;-4.10;99.90;;;;;;4163884;28;20543;-76
2021/03/06 04:02:30;;;;;;;28.35;13.10;;;-4.10;99.90;;;;;;4155102;28;20088;-76
2021/03/06 04:04:32;;;;;;;30.58;14.30;;;-4.10;99.90;;;;;;4161057;28;20095;-76
2021/03/06 04:06:34;;;;;;;37.33;15.93;;;-4.00;99.90;;;;;;4171533;28;20040;-76
2021/03/06 04:08:35;;;;;;;31.55;16.10;;;-4.00;99.90;;;;;;4162495;28;20045;-78
2021/03/06 04:10:36;;;;;;;23.73;12.70;;;-3.90;99.90;;;;;;4162350;28;20073;-77
2021/03/06 04:12:38;;;;;;;21.67;13.57;;;-3.90;99.90;;;;;;4155674;28;20512;-79
2021/03/06 04:14:41;;;;;;;24.80;13.02;;;-3.80;99.90;;;;;;4162628;28;20100;-78
2021/03/06 04:16:41;;;;;;;18.00;11.38;;;-3.90;99.90;;;;;;4156488;28;20049;-78
2021/03/06 04:18:45;;;;;;;22.05;12.20;;;-4.00;99.90;;;;;;4180523;28;20538;-77
2021/03/06 04:20:46;;;;;;;17.30;11.45;;;-4.10;99.90;;;;;;4195215;28;20071;-76
2021/03/06 04:22:49;;;;;;;20.58;12.57;;;-4.10;99.90;;;;;;4161237;28;20114;-77
2021/03/06 04:24:52;;;;;;;17.92;9.85;;;-4.20;99.90;;;;;;4167523;28;20132;-76
2021/03/06 04:26:53;;;;;;;24.10;12.13;;;-4.30;99.90;;;;;;4141850;28;20049;-78
2021/03/06 04:28:54;;;;;;;19.17;11.00;;;-4.30;99.90;;;;;;4147006;28;20456;-77
2021/03/06 04:30:54;;;;;;;19.65;11.00;;;-4.20;99.90;;;;;;4157685;28;20073;-76
2021/03/06 04:32:55;;;;;;;19.08;11.52;;;-4.10;99.90;;;;;;4146749;28;20666;-76
2021/03/06 04:34:56;;;;;;;23.63;13.10;;;-3.90;99.90;;;;;;4185043;28;20106;-78
2021/03/06 04:36:57;;;;;;;15.60;10.90;;;-3.80;99.90;;;;;;4147941;28;20105;-77
2021/03/06 04:38:58;;;;;;;22.58;12.32;;;-3.80;99.90;;;;;;4141122;28;20072;-76
2021/03/06 04:40:59;;;;;;;19.45;11.60;;;-3.80;99.90;;;;;;4162441;28;20081;-76
2021/03/06 04:43:00;;;;;;;26.67;11.75;;;-3.80;99.90;;;;;;4141892;28;20095;-77
2021/03/06 04:45:03;;;;;;;24.75;12.55;;;-3.80;99.90;;;;;;4164101;28;20500;-76
2021/03/06 04:47:05;;;;;;;18.80;11.70;;;-3.80;99.90;;;;;;4142901;28;20118;-76
2021/03/06 04:49:07;;;;;;;23.85;11.90;;;-3.90;99.90;;;;;;4141770;28;20460;-76
2021/03/06 04:51:09;;;;;;;23.70;11.80;;;-3.80;99.90;;;;;;4162226;28;20080;-77
2021/03/06 04:53:09;;;;;;;24.95;12.68;;;-3.90;99.90;;;;;;4144709;28;20038;-77
2021/03/06 04:55:12;;;;;;;21.83;13.52;;;-3.90;99.90;;;;;;4174228;28;20096;-77
2021/03/06 04:57:13;;;;;;;26.90;13.55;;;-4.00;99.90;;;;;;4161159;28;20045;-77
2021/03/06 04:59:14;;;;;;;31.25;15.40;;;-4.10;99.90;;;;;;4161365;28;20445;-77
2021/03/06 05:01:14;;;;;;;48.25;21.77;;;-4.10;99.90;;;;;;4136776;28;20042;-77
2021/03/06 05:03:15;;;;;;;52.53;23.60;;;-4.10;99.90;;;;;;4176995;28;20253;-77
2021/03/06 05:05:16;;;;;;;45.75;23.85;;;-4.10;99.90;;;;;;4147808;28;20038;-77
2021/03/06 05:07:17;;;;;;;51.08;25.17;;;-4.10;99.90;;;;;;4160306;28;20041;-77
2021/03/06 05:09:19;;;;;;;49.80;22.38;;;-4.20;99.90;;;;;;4162764;28;20034;-77
2021/03/06 05:11:20;;;;;;;51.22;25.48;;;-4.20;99.90;;;;;;4178343;28;20047;-76
2021/03/06 05:13:20;;;;;;;48.15;25.40;;;-4.20;99.90;;;;;;4162761;28;20069;-76
2021/03/06 05:15:22;;;;;;;42.22;22.35;;;-4.20;99.90;;;;;;4154369;28;20047;-77
2021/03/06 05:17:22;;;;;;;43.00;21.20;;;-4.20;99.90;;;;;;4183523;28;20160;-77
2021/03/06 05:19:23;;;;;;;39.58;22.15;;;-4.20;99.90;;;;;;4162126;28;20124;-77
2021/03/06 05:21:24;;;;;;;41.00;24.00;;;-4.20;99.90;;;;;;4162348;28;20037;-76
2021/03/06 05:23:27;;;;;;;53.97;24.50;;;-4.10;99.90;;;;;;4163892;28;20041;-76
2021/03/06 05:25:28;;;;;;;;;;;-4.20;99.90;;;;;;4166498;28;20135;-76
2021/03/06 05:27:32;;;;;;;42.63;21.15;;;-4.20;99.90;;;;;;4161861;28;19940;-77
2021/03/06 05:29:35;;;;;;;41.17;18.98;;;-4.30;99.90;;;;;;4161692;28;20094;-76
2021/03/06 05:31:36;;;;;;;39.45;19.10;;;-4.30;99.90;;;;;;4189414;28;20048;-77
2021/03/06 05:33:37;;;;;;;30.50;15.18;;;-4.40;99.90;;;;;;4152069;28;20107;-77
2021/03/06 05:35:37;;;;;;;40.50;19.25;;;-4.40;99.90;;;;;;4156749;28;20041;-77
2021/03/06 05:37:39;;;;;;;30.58;15.15;;;-4.40;99.90;;;;;;4162581;28;20041;-76
2021/03/06 05:39:40;;;;;;;37.60;17.10;;;-4.40;99.90;;;;;;4161850;28;20042;-76
2021/03/06 05:41:47;;;;;;;26.75;15.30;;;-4.30;99.90;;;;;;4145049;28;20440;-77
2021/03/06 05:43:48;;;;;;;26.08;15.32;;;-4.30;99.90;;;;;;4192623;28;20037;-77
2021/03/06 05:45:50;;;;;;;24.98;16.10;;;-4.20;99.90;;;;;;4156148;28;20087;-77
2021/03/06 05:47:52;;;;;;;22.23;14.02;;;-4.20;99.90;;;;;;4156154;28;20150;-77
2021/03/06 05:49:54;;;;;;;21.70;12.68;;;-4.30;99.90;;;;;;4143465;28;20049;-76
2021/03/06 05:51:56;;;;;;;26.27;13.27;;;-4.20;99.90;;;;;;4144996;28;20463;-77
2021/03/06 05:53:57;;;;;;;20.63;11.07;;;-4.10;99.90;;;;;;4162037;28;20778;-77
2021/03/06 05:55:59;;;;;;;17.77;11.82;;;-4.20;99.90;;;;;;4142796;28;20031;-76
2021/03/06 05:58:01;;;;;;;21.95;10.75;;;-4.20;99.90;;;;;;4161582;28;20030;-76
2021/03/06 06:00:03;;;;;;;23.73;13.23;;;-4.20;99.90;;;;;;4152804;28;20444;-77
2021/03/06 06:02:04;;;;;;;16.92;9.82;;;-4.20;99.90;;;;;;4161095;28;20037;-77
2021/03/06 06:04:07;;;;;;;21.95;12.23;;;-4.20;99.90;;;;;;4161464;28;20034;-77
2021/03/06 06:06:09;;;;;;;19.63;10.90;;;-4.20;99.90;;;;;;4195290;28;20048;-76
2021/03/06 06:08:11;;;;;;;18.77;10.10;;;-4.10;99.90;;;;;;4160027;28;20037;-77
2021/03/06 06:10:13;;;;;;;26.92;11.93;;;-4.20;99.90;;;;;;4161676;28;20424;-77
2021/03/06 06:12:14;;;;;;;18.92;11.68;;;-4.20;99.90;;;;;;4147276;28;20038;-77
2021/03/06 06:14:15;;;;;;;29.02;12.40;;;-4.20;99.90;;;;;;4171632;28;20060;-77
2021/03/06 06:16:16;;;;;;;20.67;10.65;;;-4.20;99.90;;;;;;4153997;28;20043;-76
2021/03/06 06:18:17;;;;;;;17.02;10.77;;;-4.20;99.90;;;;;;4159360;28;20124;-77
2021/03/06 06:20:18;;;;;;;27.05;11.35;;;-4.20;99.90;;;;;;4159291;28;20120;-76
2021/03/06 06:22:21;;;;;;;20.05;12.25;;;-4.20;99.90;;;;;;4134598;28;20034;-76
2021/03/06 06:24:22;;;;;;;26.73;12.57;;;-4.20;99.90;;;;;;4159101;28;20487;-76
2021/03/06 06:26:23;;;;;;;26.25;12.65;;;-4.30;99.90;;;;;;4171676;28;20451;-76
2021/03/06 06:28:24;;;;;;;28.42;12.65;;;-4.30;99.90;;;;;;4157046;28;20159;-76
2021/03/06 06:30:24;;;;;;;23.40;13.20;;;-4.30;99.90;;;;;;4189170;28;20070;-76
2021/03/06 06:32:44;;;;;;;25.30;12.52;;;-4.30;99.90;;;;;;4157747;28;20060;-76
2021/03/06 06:35:10;;;;;;;23.48;12.75;;;-4.20;99.90;;;;;;4190559;28;20063;-76
2021/03/06 06:37:13;;;;;;;20.92;13.40;;;-4.20;99.90;;;;;;4164840;28;20029;-76
2021/03/06 06:39:13;;;;;;;23.88;13.38;;;-4.10;99.90;;;;;;4181419;28;20083;-76
2021/03/06 06:41:14;;;;;;;22.65;12.07;;;-4.00;99.90;;;;;;4144370;28;20038;-76
2021/03/06 06:43:26;;;;;;;21.40;12.23;;;-4.00;99.90;;;;;;4164364;28;20080;-76
2021/03/06 06:45:36;;;;;;;21.38;13.85;;;-3.90;99.90;;;;;;4163674;28;20068;-76
2021/03/06 06:47:43;;;;;;;20.88;12.73;;;-3.80;99.90;;;;;;4163947;28;20060;-76
2021/03/06 06:49:49;;;;;;;23.80;13.95;;;-3.80;99.90;;;;;;4162312;28;20037;-76
2021/03/06 06:52:01;;;;;;;28.35;14.05;;;-3.70;99.90;;;;;;4146318;28;20034;-76
2021/03/06 06:54:13;;;;;;;34.60;12.57;;;-3.60;99.90;;;;;;4161667;28;20034;-76
2021/03/06 06:56:24;;;;;;;21.58;12.40;;;-3.60;99.90;;;;;;4159081;28;20038;-76
2021/03/06 06:58:35;;;;;;;20.25;13.93;;;-3.60;99.90;;;;;;4162864;28;20045;-76
2021/03/06 07:00:36;;;;;;;24.63;13.93;;;-3.60;99.90;;;;;;4164545;28;20045;-76
2021/03/06 07:02:37;;;;;;;20.80;12.27;;;-3.50;99.90;;;;;;4162579;28;20134;-76
2021/03/06 07:04:53;;;;;;;21.73;11.45;;;-3.50;99.90;;;;;;4166963;28;20045;-76
2021/03/06 07:06:58;;;;;;;26.25;13.57;;;-3.40;99.90;;;;;;4161676;28;20624;-77
2021/03/06 07:09:10;;;;;;;24.52;13.63;;;-3.40;99.90;;;;;;4162853;28;20430;-76
2021/03/06 07:11:25;;;;;;;22.92;13.45;;;-3.30;99.90;;;;;;4163627;28;20474;-76
2021/03/06 07:13:40;;;;;;;26.33;15.15;;;-3.30;99.90;;;;;;4177956;28;20567;-76
2021/03/06 07:15:43;;;;;;;21.20;14.23;;;-3.20;99.90;;;;;;4163583;28;20044;-76
2021/03/06 07:17:47;;;;;;;31.42;14.05;;;-3.10;99.90;;;;;;4163045;28;20037;-76
2021/03/06 07:19:47;;;;;;;32.75;17.95;;;-3.10;99.90;;;;;;4178827;28;20037;-77
2021/03/06 07:21:49;;;;;;;26.23;13.43;;;-3.10;99.90;;;;;;4162810;28;20064;-77
2021/03/06 07:23:50;;;;;;;21.77;13.73;;;-3.00;99.90;;;;;;4191872;28;20043;-77
2021/03/06 07:25:54;;;;;;;19.83;15.07;;;-2.90;99.90;;;;;;4158423;28;20476;-77
2021/03/06 07:27:54;;;;;;;19.52;14.02;;;-2.80;99.90;;;;;;4145475;28;20526;-77
2021/03/06 07:29:55;;;;;;;29.02;15.27;;;-2.70;99.90;;;;;;4157830;28;20022;-77
2021/03/06 07:31:58;;;;;;;27.40;15.63;;;-2.60;99.90;;;;;;4160220;28;20041;-77
2021/03/06 07:34:00;;;;;;;31.40;16.40;;;-2.60;99.90;;;;;;4158919;28;20048;-77
2021/03/06 07:36:02;;;;;;;23.73;13.50;;;-2.50;99.90;;;;;;4143074;28;20046;-77
2021/03/06 07:38:12;;;;;;;22.30;13.73;;;-2.40;99.90;;;;;;4161806;28;20034;-77
2021/03/06 07:40:15;;;;;;;22.38;14.43;;;-2.30;99.90;;;;;;4161102;28;20033;-77
2021/03/06 07:42:49;;;;;;;20.85;14.52;;;-2.20;99.90;;;;;;4161085;28;20133;-76
2021/03/06 07:44:52;;;;;;;27.85;14.98;;;-2.00;99.90;;;;;;4160605;28;20147;-77
2021/03/06 07:46:58;;;;;;;29.17;15.70;;;-1.90;99.90;;;;;;4142239;28;20065;-77
2021/03/06 07:49:01;;;;;;;25.95;15.43;;;-1.90;99.90;;;;;;4156826;28;20030;-77
2021/03/06 07:51:04;;;;;;;26.17;14.18;;;-1.80;99.90;;;;;;4166756;28;20032;-76
2021/03/06 07:53:05;;;;;;;25.52;16.65;;;-1.60;99.90;;;;;;4188108;28;20072;-77
2021/03/06 07:55:10;;;;;;;25.38;15.38;;;-1.50;99.90;;;;;;4176039;28;20586;-76
2021/03/06 07:57:13;;;;;;;29.40;14.57;;;-1.40;99.90;;;;;;4163081;28;20049;-76
2021/03/06 07:59:14;;;;;;;25.40;15.63;;;-1.20;99.90;;;;;;4159903;28;20056;-76
2021/03/06 08:01:32;;;;;;;29.00;16.80;;;-1.10;99.90;;;;;;4161725;28;20034;-76
2021/03/06 08:03:34;;;;;;;31.70;16.90;;;-1.00;99.90;;;;;;4156062;28;20663;-77
2021/03/06 08:05:46;;;;;;;26.63;16.92;;;-0.80;99.90;;;;;;4161491;28;20041;-77
2021/03/06 08:07:48;;;;;;;22.92;15.98;;;-0.70;99.90;;;;;;4160943;28;20484;-77
2021/03/06 08:09:59;;;;;;;25.63;16.98;;;-0.70;99.90;;;;;;4160845;28;20048;-78
2021/03/06 08:11:59;;;;;;;33.67;16.15;;;-0.60;99.90;;;;;;4158753;28;20446;-77
2021/03/06 08:14:06;;;;;;;29.50;16.50;;;-0.60;99.90;;;;;;4143556;28;20041;-77
2021/03/06 08:16:22;;;;;;;38.13;20.55;;;-0.40;99.90;;;;;;4156882;28;20048;-77
2021/03/06 08:18:32;;;;;;;32.05;17.38;;;-0.30;99.90;;;;;;4140138;28;20427;-78
2021/03/06 08:20:34;;;;;;;25.30;16.30;;;-0.10;99.90;;;;;;4141767;28;20350;-78
2021/03/06 08:22:35;;;;;;;34.72;15.80;;;0.00;99.90;;;;;;4160435;28;20065;-78
2021/03/06 08:24:36;;;;;;;36.17;17.60;;;0.10;99.90;;;;;;4144758;28;20053;-78
2021/03/06 08:26:37;;;;;;;39.10;16.98;;;0.10;99.90;;;;;;4144232;28;20409;-77
2021/03/06 08:28:38;;;;;;;29.90;17.27;;;0.10;99.90;;;;;;4143675;28;20050;-77
2021/03/06 08:30:39;;;;;;;29.70;18.13;;;0.20;99.90;;;;;;4149706;28;20107;-77
2021/03/06 08:32:40;;;;;;;35.60;20.08;;;0.30;99.90;;;;;;4144913;28;20056;-78
2021/03/06 08:34:46;;;;;;;37.47;23.13;;;0.30;99.90;;;;;;4129068;28;20041;-78
2021/03/06 08:36:46;;;;;;;52.97;27.98;;;0.40;99.90;;;;;;4124151;28;20039;-78
2021/03/06 08:38:48;;;;;;;60.25;36.90;;;0.50;99.90;;;;;;4142965;28;20108;-79
2021/03/06 08:40:52;;;;;;;84.82;52.08;;;0.50;99.90;;;;;;4173551;28;20053;-79
2021/03/06 08:42:55;;;;;;;188.82;106.22;;;0.60;99.90;;;;;;4155490;28;20046;-78
2021/03/06 08:45:02;;;;;;;115.38;69.97;;;0.60;99.90;;;;;;4147925;28;20037;-78
2021/03/06 08:47:05;;;;;;;103.55;61.67;;;0.70;99.90;;;;;;4160831;28;20550;-78
2021/03/06 08:49:08;;;;;;;86.60;52.38;;;0.80;99.90;;;;;;4159942;28;21652;-78
2021/03/06 08:51:09;;;;;;;71.53;41.33;;;0.80;99.90;;;;;;4159886;28;20443;-78
2021/03/06 08:53:14;;;;;;;55.45;38.60;;;0.90;99.90;;;;;;4160497;28;20049;-79
2021/03/06 08:55:21;;;;;;;39.55;23.08;;;1.00;99.90;;;;;;4157115;28;20034;-79
2021/03/06 08:57:38;;;;;;;40.65;24.33;;;1.20;99.90;;;;;;4151744;28;20056;-78
2021/03/06 08:59:39;;;;;;;38.53;23.88;;;1.30;99.90;;;;;;4168562;28;20064;-76
2021/03/06 09:01:41;;;;;;;35.53;22.30;;;1.40;99.90;;;;;;4170995;28;20064;-78
2021/03/06 09:03:48;;;;;;;44.13;24.33;;;1.50;99.90;;;;;;4152182;28;20041;-79
2021/03/06 09:05:55;;;;;;;37.58;27.67;;;1.70;99.90;;;;;;4155487;28;20041;-78
2021/03/06 09:07:57;;;;;;;37.75;25.13;;;1.80;99.90;;;;;;4141596;28;20128;-79
2021/03/06 09:10:35;;;;;;;37.03;24.65;;;1.90;99.90;;;;;;4187785;28;20047;-79
2021/03/06 09:12:44;;;;;;;33.45;23.40;;;2.10;99.90;;;;;;4124004;28;20049;-79
2021/03/06 09:14:46;;;;;;;52.65;31.35;;;2.20;99.90;;;;;;4166884;28;20033;-78
2021/03/06 09:16:48;;;;;;;34.35;17.95;;;2.40;99.90;;;;;;4161305;28;20395;-80
2021/03/06 09:18:49;;;;;;;24.40;13.85;;;2.50;99.90;;;;;;4143939;28;20412;-79
2021/03/06 09:21:15;;;;;;;32.20;17.80;;;2.60;99.90;;;;;;4160735;28;20128;-79
2021/03/06 09:23:29;;;;;;;28.67;14.15;;;2.40;99.90;;;;;;4169759;28;20550;-80
2021/03/06 09:25:49;;;;;;;20.33;13.10;;;3.00;99.90;;;;;;4173034;28;20052;-81
2021/03/06 09:27:51;;;;;;;30.17;17.85;;;3.10;99.90;;;;;;4170345;28;20191;-81
2021/03/06 09:29:51;;;;;;;29.88;18.25;;;3.80;99.90;;;;;;4160431;28;20345;-80
2021/03/06 09:31:52;;;;;;;28.98;16.80;;;3.50;99.90;;;;;;4144407;28;20038;-81
2021/03/06 09:33:53;;;;;;;25.85;16.90;;;3.70;99.90;;;;;;4186050;28;20080;-80
2021/03/06 09:36:03;;;;;;;31.60;20.52;;;3.90;99.90;;;;;;4160500;28;20072;-80
2021/03/06 09:38:12;;;;;;;33.65;21.55;;;4.10;99.90;;;;;;4172991;28;20033;-80
2021/03/06 09:40:21;;;;;;;27.38;15.18;;;4.40;99.90;;;;;;4148204;28;20087;-80
2021/03/06 09:42:24;;;;;;;20.33;11.32;;;4.60;99.90;;;;;;4186283;28;20094;-80
2021/03/06 09:44:25;;;;;;;20.40;9.70;;;4.80;99.90;;;;;;4174055;28;20065;-81
2021/03/06 09:46:30;;;;;;;15.35;8.98;;;5.00;99.90;;;;;;4126878;28;20420;-80
2021/03/06 09:48:30;;;;;;;16.58;9.90;;;5.20;99.90;;;;;;4172162;28;20427;-80
2021/03/06 09:50:32;;;;;;;19.73;9.63;;;5.20;99.90;;;;;;4168305;28;20045;-80
2021/03/06 09:52:34;;;;;;;15.20;9.13;;;5.30;99.90;;;;;;4176139;28;20116;-81
2021/03/06 09:54:36;;;;;;;16.75;6.30;;;5.60;99.90;;;;;;4157420;28;20099;-80
2021/03/06 09:57:09;;;;;;;17.17;5.93;;;5.70;99.90;;;;;;4143394;28;20111;-81
2021/03/06 09:59:10;;;;;;;10.65;4.97;;;6.00;99.90;;;;;;4109027;28;21436;-81
2021/03/06 10:01:20;;;;;;;7.65;4.50;;;6.30;99.90;;;;;;4159278;28;20088;-81
2021/03/06 10:03:33;;;;;;;11.65;5.80;;;6.50;99.90;;;;;;4168834;28;20113;-82
2021/03/06 10:05:34;;;;;;;10.98;5.00;;;6.80;99.90;;;;;;4140853;28;20108;-81
2021/03/06 10:07:35;;;;;;;8.88;5.88;;;7.00;99.90;;;;;;4159557;28;20129;-81
2021/03/06 10:09:36;;;;;;;8.02;3.60;;;7.00;99.90;;;;;;4190500;28;20088;-81
2021/03/06 10:11:42;;;;;;;8.77;4.45;;;6.90;99.90;;;;;;4143104;28;20139;-81
2021/03/06 10:13:51;;;;;;;3.65;2.90;;;6.70;99.90;;;;;;4160167;28;20479;-83
2021/03/06 10:15:54;;;;;;;7.43;3.17;;;6.80;99.90;;;;;;4172557;28;20052;-82
2021/03/06 10:17:55;;;;;;;4.32;2.75;;;6.80;99.90;;;;;;4140890;28;20045;-82
2021/03/06 10:19:55;;;;;;;5.18;3.28;;;7.10;99.90;;;;;;4122101;28;20038;-83
2021/03/06 10:22:09;;;;;;;8.43;4.38;;;7.60;99.90;;;;;;4125219;28;20042;-82
2021/03/06 10:24:11;;;;;;;4.03;2.67;;;8.00;99.90;;;;;;4150596;28;20033;-83
2021/03/06 10:26:32;;;;;;;5.85;2.67;;;8.10;99.90;;;;;;4142190;28;20454;-83
2021/03/06 10:28:33;;;;;;;6.90;4.30;;;7.70;99.90;;;;;;4141553;28;20053;-84
2021/03/06 10:30:39;;;;;;;12.10;2.97;;;7.60;99.90;;;;;;4143064;28;20504;-82
2021/03/06 10:32:47;;;;;;;5.65;2.35;;;7.40;99.90;;;;;;4141416;28;20042;-84
2021/03/06 10:34:49;;;;;;;7.72;2.60;;;8.80;99.90;;;;;;4141415;28;20057;-84